createdAt,value
2023-02-23T00:01:27.714Z,22.93
2023-02-23T00:03:58.973Z,24.80
2023-02-23T00:06:27.801Z,24.10
2023-02-23T00:08:54.964Z,23.43
2023-02-23T00:11:22.193Z,24.67
2023-02-23T00:13:50.331Z,25.33
2023-02-23T00:16:22.645Z,26.83
2023-02-23T00:18:55.038Z,25.10
2023-02-23T00:21:35.389Z,21.90
2023-02-23T00:24:06.374Z,22.90
2023-02-23T00:26:35.133Z,22.27
2023-02-23T00:29:07.984Z,21.80
2023-02-23T00:31:35.080Z,22.93
2023-02-23T00:34:03.520Z,23.17
2023-02-23T00:36:33.311Z,24.33
2023-02-23T00:39:02.463Z,24.00
2023-02-23T00:41:29.919Z,22.77
2023-02-23T00:43:58.196Z,23.07
2023-02-23T00:46:27.631Z,23.27
2023-02-23T00:48:55.505Z,23.63
2023-02-23T00:51:23.385Z,24.43
2023-02-23T00:53:54.565Z,25.20
2023-02-23T00:56:21.981Z,25.27
2023-02-23T00:58:48.522Z,25.20
2023-02-23T01:01:15.942Z,24.67
2023-02-23T01:03:43.318Z,24.17
2023-02-23T01:06:13.132Z,22.43
2023-02-23T01:08:42.850Z,24.60
2023-02-23T01:11:14.829Z,23.83
2023-02-23T01:13:44.924Z,23.33
2023-02-23T01:16:13.913Z,24.30
2023-02-23T01:18:41.907Z,27.77
2023-02-23T01:21:18.978Z,27.10
2023-02-23T01:23:45.843Z,28.13
2023-02-23T01:26:34.025Z,27.77
2023-02-23T01:29:04.739Z,26.70
2023-02-23T01:31:31.687Z,27.93
2023-02-23T01:34:02.702Z,27.07
2023-02-23T01:36:29.908Z,23.93
2023-02-23T01:38:57.172Z,26.70
2023-02-23T01:41:25.238Z,27.73
2023-02-23T01:44:07.084Z,24.67
2023-02-23T01:46:45.209Z,23.77
2023-02-23T01:49:16.444Z,23.23
2023-02-23T01:51:50.023Z,24.77
2023-02-23T01:54:21.311Z,24.07
2023-02-23T01:56:57.897Z,23.23
2023-02-23T01:59:29.669Z,23.90
2023-02-23T02:04:44.309Z,22.20
2023-02-23T02:07:23.332Z,21.00
2023-02-23T02:10:11.345Z,23.20
2023-02-23T02:12:44.360Z,20.40
2023-02-23T02:15:17.285Z,23.77
2023-02-23T02:17:57.963Z,22.40
2023-02-23T02:20:33.552Z,20.40
2023-02-23T02:23:02.959Z,21.17
2023-02-23T02:25:44.406Z,24.03
2023-02-23T02:28:29.886Z,22.83
2023-02-23T02:31:45.058Z,19.50
2023-02-23T02:34:49.594Z,20.60
2023-02-23T02:37:22.857Z,21.33
2023-02-23T02:40:13.948Z,19.33
2023-02-23T02:42:55.368Z,21.27
2023-02-23T02:45:28.291Z,19.20
2023-02-23T02:48:02.747Z,20.57
2023-02-23T02:50:53.012Z,20.60
2023-02-23T02:53:29.458Z,19.17
2023-02-23T02:56:00.298Z,18.23
2023-02-23T02:58:27.848Z,19.97
2023-02-23T03:01:13.132Z,20.97
2023-02-23T03:04:02.244Z,20.30
2023-02-23T03:06:54.679Z,21.30
2023-02-23T03:10:17.774Z,21.20
2023-02-23T03:13:32.099Z,20.70
2023-02-23T03:16:54.029Z,21.00
2023-02-23T03:19:41.803Z,19.43
2023-02-23T03:22:33.266Z,21.70
2023-02-23T03:25:37.413Z,21.33
2023-02-23T03:28:31.397Z,21.27
2023-02-23T03:31:29.544Z,22.50
2023-02-23T03:34:38.178Z,22.17
2023-02-23T03:37:33.054Z,22.63
2023-02-23T03:40:28.878Z,22.57
2023-02-23T03:43:17.083Z,20.73
2023-02-23T03:46:06.912Z,22.97
2023-02-23T03:48:55.095Z,19.97
2023-02-23T03:51:43.657Z,20.83
2023-02-23T03:54:35.105Z,22.70
2023-02-23T03:57:24.191Z,21.40
2023-02-23T04:00:17.665Z,22.07
2023-02-23T04:03:06.759Z,21.23
2023-02-23T04:05:55.015Z,22.10
2023-02-23T04:08:43.907Z,21.57
2023-02-23T04:11:40.061Z,22.10
2023-02-23T04:14:16.801Z,21.10
2023-02-23T04:16:43.930Z,21.17
2023-02-23T04:19:11.219Z,22.17
2023-02-23T04:21:37.652Z,23.30
2023-02-23T04:24:04.308Z,25.17
2023-02-23T04:26:30.789Z,25.93
2023-02-23T04:28:57.302Z,23.77
2023-02-23T04:31:25.302Z,26.50
2023-02-23T04:33:52.119Z,23.73
2023-02-23T04:36:18.517Z,25.43
2023-02-23T04:38:44.935Z,28.20
2023-02-23T04:41:11.355Z,29.40
2023-02-23T04:43:37.697Z,28.37
2023-02-23T04:46:04.271Z,31.13
2023-02-23T04:48:30.688Z,33.27
2023-02-23T04:50:57.121Z,28.57
2023-02-23T04:53:23.951Z,29.83
2023-02-23T04:55:50.560Z,25.87
2023-02-23T04:58:16.937Z,23.90
2023-02-23T05:00:43.377Z,25.20
2023-02-23T05:03:10.681Z,22.70
2023-02-23T05:05:37.096Z,25.20
2023-02-23T05:08:03.571Z,25.97
2023-02-23T05:10:30.033Z,24.90
2023-02-23T05:12:58.071Z,25.37
2023-02-23T05:15:24.479Z,25.93
2023-02-23T05:17:50.909Z,24.40
2023-02-23T05:20:17.372Z,24.73
2023-02-23T05:22:43.832Z,25.03
2023-02-23T05:25:11.100Z,24.20
2023-02-23T05:27:37.949Z,22.70
2023-02-23T05:30:07.353Z,22.63
2023-02-23T05:32:34.753Z,24.30
2023-02-23T05:35:02.464Z,23.17
2023-02-23T05:37:28.860Z,23.67
2023-02-23T05:39:55.357Z,24.57
2023-02-23T05:42:21.860Z,22.43
2023-02-23T05:44:48.414Z,23.87
2023-02-23T05:47:14.806Z,24.40
2023-02-23T05:49:41.226Z,23.13
2023-02-23T05:52:08.409Z,22.33
2023-02-23T05:54:34.931Z,22.33
2023-02-23T05:57:01.927Z,24.80
2023-02-23T05:59:28.984Z,25.67
2023-02-23T06:01:55.804Z,25.87
2023-02-23T06:04:23.337Z,23.10
2023-02-23T06:06:50.045Z,23.43
2023-02-23T06:09:16.434Z,23.30
2023-02-23T06:11:42.844Z,25.43
2023-02-23T06:14:09.272Z,25.97
2023-02-23T06:16:35.792Z,25.47
2023-02-23T06:19:02.341Z,28.77
2023-02-23T06:21:28.747Z,31.23
2023-02-23T06:23:55.406Z,32.57
2023-02-23T06:26:21.783Z,31.37
2023-02-23T06:28:48.217Z,30.37
2023-02-23T06:31:14.637Z,30.63
2023-02-23T06:33:41.060Z,32.23
2023-02-23T06:36:08.000Z,33.57
2023-02-23T06:38:34.446Z,31.43
2023-02-23T06:41:00.896Z,32.30
2023-02-23T06:43:28.445Z,31.60
2023-02-23T06:45:55.619Z,33.97
2023-02-23T06:48:22.038Z,33.40
2023-02-23T06:50:48.493Z,34.17
2023-02-23T06:53:14.910Z,35.97
2023-02-23T06:55:41.340Z,35.30
2023-02-23T06:58:08.811Z,35.90
2023-02-23T07:00:35.367Z,36.67
2023-02-23T07:03:01.819Z,38.07
2023-02-23T07:05:28.676Z,39.53
2023-02-23T07:07:55.078Z,40.33
2023-02-23T07:10:21.754Z,42.63
2023-02-23T07:12:48.220Z,40.60
2023-02-23T07:15:17.666Z,42.67
2023-02-23T07:17:45.092Z,43.63
2023-02-23T07:20:12.223Z,42.97
2023-02-23T07:22:39.874Z,38.87
2023-02-23T07:25:07.246Z,41.20
2023-02-23T07:27:33.596Z,42.40
2023-02-23T07:30:00.004Z,40.50
2023-02-23T07:32:26.513Z,41.37
2023-02-23T07:34:53.989Z,44.30
2023-02-23T07:37:21.419Z,41.63
2023-02-23T07:39:47.917Z,41.07
2023-02-23T07:42:14.334Z,39.60
2023-02-23T07:44:40.770Z,40.50
2023-02-23T07:47:07.322Z,42.20
2023-02-23T07:49:34.478Z,45.20
2023-02-23T07:52:00.853Z,40.73
2023-02-23T07:54:27.336Z,43.77
2023-02-23T07:56:53.761Z,42.93
2023-02-23T07:59:20.435Z,39.07
2023-02-23T08:01:47.161Z,39.60
2023-02-23T08:04:13.602Z,41.83
2023-02-23T08:06:40.077Z,41.30
2023-02-23T08:09:07.272Z,41.80
2023-02-23T08:11:33.686Z,42.87
2023-02-23T08:14:00.362Z,40.17
2023-02-23T08:16:31.668Z,40.90
2023-02-23T08:18:59.402Z,38.40
2023-02-23T08:21:29.028Z,40.67
2023-02-23T08:23:56.857Z,37.63
2023-02-23T08:26:25.001Z,38.97
2023-02-23T08:28:52.545Z,37.70
2023-02-23T08:31:21.346Z,38.83
2023-02-23T08:33:48.106Z,38.00
2023-02-23T08:36:14.489Z,42.23
2023-02-23T08:38:40.899Z,41.27
2023-02-23T08:41:07.359Z,41.20
2023-02-23T08:43:33.821Z,39.87
2023-02-23T08:46:00.336Z,40.93
2023-02-23T08:48:26.912Z,39.63
2023-02-23T08:50:57.114Z,39.60
2023-02-23T08:53:25.521Z,39.50
2023-02-23T08:56:00.693Z,39.50
2023-02-23T08:58:28.712Z,39.90
2023-02-23T09:00:55.253Z,40.80
2023-02-23T09:03:23.128Z,38.57
2023-02-23T09:05:50.043Z,43.90
2023-02-23T09:08:16.524Z,41.20
2023-02-23T09:10:43.944Z,41.37
2023-02-23T09:13:12.060Z,42.60
2023-02-23T09:15:39.826Z,38.43
2023-02-23T09:18:07.767Z,38.93
2023-02-23T09:20:34.241Z,38.83
2023-02-23T09:23:00.645Z,38.37
2023-02-23T09:25:29.233Z,40.37
2023-02-23T09:27:57.024Z,38.10
2023-02-23T09:30:23.720Z,38.17
2023-02-23T09:32:51.207Z,37.87
2023-02-23T09:35:18.919Z,37.87
2023-02-23T09:37:48.596Z,37.13
2023-02-23T09:40:19.072Z,36.70
2023-02-23T09:43:04.343Z,36.47
2023-02-23T09:46:12.101Z,37.13
2023-02-23T09:48:39.603Z,34.53
2023-02-23T09:51:09.066Z,34.40
2023-02-23T09:53:48.397Z,33.67
2023-02-23T09:56:33.036Z,34.27
2023-02-23T09:59:00.825Z,33.17
2023-02-23T10:01:48.523Z,32.33
2023-02-23T10:04:28.713Z,32.60
2023-02-23T10:07:00.597Z,30.40
2023-02-23T10:09:35.972Z,30.37
2023-02-23T10:12:13.470Z,32.73
2023-02-23T10:15:04.110Z,32.97
2023-02-23T10:17:53.190Z,31.00
2023-02-23T10:20:34.858Z,31.00
2023-02-23T10:23:22.087Z,29.97
2023-02-23T10:25:50.805Z,29.67
2023-02-23T10:28:21.523Z,30.07
2023-02-23T10:30:50.499Z,31.07
2023-02-23T10:33:40.249Z,30.10
2023-02-23T10:36:37.053Z,30.43
2023-02-23T10:39:07.870Z,29.10
2023-02-23T10:41:38.128Z,28.80
2023-02-23T10:44:16.216Z,28.13
2023-02-23T10:46:46.485Z,30.67
2023-02-23T10:49:22.513Z,27.87
2023-02-23T10:51:52.354Z,29.57
2023-02-23T10:54:34.607Z,29.43
2023-02-23T10:57:01.766Z,32.00
2023-02-23T10:59:28.762Z,29.83
2023-02-23T11:02:02.232Z,28.90
2023-02-23T11:04:32.131Z,29.80
2023-02-23T11:07:22.364Z,29.17
2023-02-23T11:09:51.333Z,29.43
2023-02-23T11:12:22.723Z,27.90
2023-02-23T11:14:51.607Z,27.87
2023-02-23T11:17:33.143Z,28.73
2023-02-23T11:20:02.687Z,26.47
2023-02-23T11:22:34.924Z,28.87
2023-02-23T11:25:12.918Z,27.17
2023-02-23T11:27:39.656Z,28.00
2023-02-23T11:30:07.137Z,29.20
2023-02-23T11:32:42.365Z,27.20
2023-02-23T11:35:20.917Z,29.53
2023-02-23T11:37:49.055Z,26.90
2023-02-23T11:40:31.372Z,28.77
2023-02-23T11:43:13.517Z,26.10
2023-02-23T11:45:48.133Z,23.90
2023-02-23T11:48:28.688Z,24.97
2023-02-23T11:50:56.354Z,23.20
2023-02-23T11:53:31.491Z,21.83
2023-02-23T11:56:08.042Z,22.43
2023-02-23T11:58:40.144Z,22.03
2023-02-23T12:01:12.374Z,23.50
2023-02-23T12:03:49.118Z,24.43
2023-02-23T12:06:33.982Z,23.10
2023-02-23T12:09:23.646Z,24.73
2023-02-23T12:11:58.031Z,22.80
2023-02-23T12:14:33.921Z,22.90
2023-02-23T12:17:13.033Z,22.03
2023-02-23T12:19:46.534Z,23.10
2023-02-23T12:22:20.283Z,20.80
2023-02-23T12:25:04.942Z,22.93
2023-02-23T12:27:46.514Z,19.30
2023-02-23T12:30:43.821Z,22.20
2023-02-23T12:33:20.835Z,22.07
2023-02-23T12:36:26.204Z,21.90
2023-02-23T12:39:30.816Z,21.10
2023-02-23T12:42:28.364Z,21.43
2023-02-23T12:45:03.994Z,21.70
2023-02-23T12:47:43.536Z,21.83
2023-02-23T12:50:33.754Z,22.30
2023-02-23T12:53:08.369Z,21.30
2023-02-23T12:55:47.220Z,21.43
2023-02-23T12:58:32.344Z,20.87
2023-02-23T13:01:17.546Z,20.37
2023-02-23T13:04:02.833Z,20.47
2023-02-23T13:06:47.441Z,19.50
2023-02-23T13:09:48.439Z,19.07
2023-02-23T13:12:20.899Z,18.60
2023-02-23T13:15:18.408Z,19.50
2023-02-23T13:18:06.208Z,18.63
2023-02-23T13:20:38.607Z,17.47
2023-02-23T13:23:40.973Z,17.97
2023-02-23T13:26:24.752Z,18.80
2023-02-23T13:28:58.600Z,19.33
2023-02-23T13:31:29.355Z,19.50
2023-02-23T13:33:58.588Z,18.60
2023-02-23T13:36:27.581Z,20.10
2023-02-23T13:39:31.596Z,19.30
2023-02-23T13:42:21.995Z,17.77
2023-02-23T13:45:06.781Z,19.13
2023-02-23T13:47:42.859Z,19.23
2023-02-23T13:50:27.843Z,17.87
2023-02-23T13:52:58.685Z,17.60
2023-02-23T13:55:32.643Z,19.67
2023-02-23T13:58:15.288Z,19.97
2023-02-23T14:00:42.861Z,18.37
2023-02-23T14:03:23.087Z,16.77
2023-02-23T14:05:53.960Z,17.90
2023-02-23T14:08:32.684Z,18.43
2023-02-23T14:10:59.203Z,17.03
2023-02-23T14:13:34.799Z,19.43
2023-02-23T14:16:16.974Z,17.87
2023-02-23T14:19:08.192Z,18.10
2023-02-23T14:21:52.463Z,17.17
2023-02-23T14:24:24.542Z,18.33
2023-02-23T14:27:34.070Z,18.30
2023-02-23T14:30:11.407Z,16.73
2023-02-23T14:32:40.003Z,18.10
2023-02-23T14:35:33.757Z,19.23
2023-02-23T14:38:02.009Z,17.17
2023-02-23T14:40:34.827Z,17.17
2023-02-23T14:43:03.453Z,20.67
2023-02-23T14:45:38.034Z,20.13
2023-02-23T14:48:17.118Z,20.90
2023-02-23T14:50:43.953Z,23.03
2023-02-23T14:53:24.913Z,23.00
2023-02-23T14:55:51.275Z,24.27
2023-02-23T14:58:23.221Z,27.70
2023-02-23T15:00:51.913Z,25.20
2023-02-23T15:03:18.572Z,27.37
2023-02-23T15:05:52.526Z,26.00
2023-02-23T15:08:23.185Z,26.73
2023-02-23T15:10:52.679Z,25.90
2023-02-23T15:16:29.562Z,26.07
2023-02-23T15:19:33.226Z,24.17
2023-02-23T15:22:01.597Z,23.47
2023-02-23T15:24:33.024Z,21.80
2023-02-23T15:26:59.598Z,22.50
2023-02-23T15:29:32.584Z,21.77
2023-02-23T15:32:15.157Z,21.50
2023-02-23T15:34:41.794Z,21.90
2023-02-23T15:37:15.355Z,22.17
2023-02-23T15:39:56.920Z,22.70
2023-02-23T15:42:36.345Z,23.50
2023-02-23T15:45:11.676Z,24.50
2023-02-23T15:47:40.570Z,23.10
2023-02-23T15:50:20.128Z,23.97
2023-02-23T15:53:00.163Z,21.60
2023-02-23T15:55:36.759Z,23.90
2023-02-23T15:58:20.625Z,25.10
2023-02-23T16:00:55.333Z,24.97
2023-02-23T16:03:44.018Z,24.57
2023-02-23T16:06:32.870Z,25.70
2023-02-23T16:09:03.098Z,26.20
2023-02-23T16:11:37.677Z,27.03
2023-02-23T16:14:05.702Z,30.70
2023-02-23T16:16:35.288Z,28.00
2023-02-23T16:19:02.686Z,28.57
2023-02-23T16:21:35.368Z,29.43
2023-02-23T16:24:09.230Z,30.87
2023-02-23T16:26:44.647Z,30.47
2023-02-23T16:29:18.531Z,29.60
2023-02-23T16:31:48.017Z,30.17
2023-02-23T16:34:30.219Z,31.27
2023-02-23T16:37:23.081Z,31.07
2023-02-23T16:39:49.516Z,31.93
2023-02-23T16:42:30.206Z,31.37
2023-02-23T16:44:57.528Z,34.27
2023-02-23T16:47:23.881Z,31.40
2023-02-23T16:49:51.474Z,31.00
2023-02-23T16:52:23.759Z,29.80
2023-02-23T16:54:54.491Z,29.80
2023-02-23T16:57:27.079Z,30.40
2023-02-23T16:59:54.933Z,32.00
2023-02-23T17:02:24.275Z,30.00
2023-02-23T17:04:51.655Z,30.57
2023-02-23T17:07:22.797Z,30.23
2023-02-23T17:09:50.236Z,32.50
2023-02-23T17:12:21.486Z,33.77
2023-02-23T17:14:49.372Z,31.27
2023-02-23T17:17:18.045Z,31.57
2023-02-23T17:19:45.529Z,33.40
2023-02-23T17:22:12.488Z,31.17
2023-02-23T17:24:43.664Z,34.20
2023-02-23T17:27:10.279Z,33.40
2023-02-23T17:29:37.024Z,32.10
2023-02-23T17:32:03.738Z,33.70
2023-02-23T17:34:30.785Z,32.77
2023-02-23T17:36:57.211Z,29.10
2023-02-23T17:39:27.980Z,30.30
2023-02-23T17:41:54.662Z,30.10
2023-02-23T17:44:21.095Z,30.40
2023-02-23T17:46:48.555Z,31.83
2023-02-23T17:49:14.956Z,31.93
2023-02-23T17:51:41.396Z,34.00
2023-02-23T17:54:07.812Z,34.40
2023-02-23T17:56:34.469Z,34.20
2023-02-23T17:59:00.866Z,33.60
2023-02-23T18:01:27.371Z,32.67
2023-02-23T18:03:56.454Z,31.83
2023-02-23T18:06:22.906Z,33.10
2023-02-23T18:08:49.290Z,32.60
2023-02-23T18:11:18.560Z,32.63
2023-02-23T18:13:47.546Z,31.03
2023-02-23T18:16:14.483Z,31.20
2023-02-23T18:18:44.247Z,30.40
2023-02-23T18:21:13.249Z,29.50
2023-02-23T18:23:40.154Z,27.17
2023-02-23T18:26:09.672Z,26.80
2023-02-23T18:28:37.211Z,27.87
2023-02-23T18:31:04.438Z,28.00
2023-02-23T18:33:31.553Z,26.70
2023-02-23T18:35:58.219Z,26.87
2023-02-23T18:38:24.642Z,27.60
2023-02-23T18:40:51.072Z,26.30
2023-02-23T18:43:17.557Z,29.53
2023-02-23T18:45:43.940Z,27.57
2023-02-23T18:48:13.469Z,29.03
2023-02-23T18:50:41.309Z,26.37
2023-02-23T18:53:09.046Z,28.20
2023-02-23T18:55:37.762Z,26.80
2023-02-23T18:58:05.163Z,26.57
2023-02-23T19:00:36.948Z,26.50
2023-02-23T19:03:03.462Z,24.60
2023-02-23T19:05:30.035Z,26.40
2023-02-23T19:07:57.261Z,26.07
2023-02-23T19:10:23.681Z,26.90
2023-02-23T19:12:50.153Z,27.53
2023-02-23T19:15:16.691Z,28.43
2023-02-23T19:17:43.148Z,28.10
2023-02-23T19:20:13.544Z,28.67
2023-02-23T19:22:41.323Z,27.80
2023-02-23T19:25:11.527Z,28.60
2023-02-23T19:27:38.602Z,30.97
2023-02-23T19:30:08.660Z,27.70
2023-02-23T19:32:35.352Z,26.10
2023-02-23T19:35:01.841Z,27.93
2023-02-23T19:37:28.307Z,29.10
2023-02-23T19:39:54.661Z,30.50
2023-02-23T19:42:21.717Z,28.63
2023-02-23T19:44:48.109Z,30.07
2023-02-23T19:47:14.514Z,29.10
2023-02-23T19:49:40.898Z,31.23
2023-02-23T19:52:07.439Z,28.27
2023-02-23T19:54:37.736Z,27.83
2023-02-23T19:57:04.457Z,29.77
2023-02-23T19:59:30.823Z,29.43
2023-02-23T20:01:57.201Z,28.00
2023-02-23T20:04:23.635Z,28.80
2023-02-23T20:06:50.033Z,28.77
2023-02-23T20:09:16.428Z,29.77
2023-02-23T20:11:42.988Z,30.30
2023-02-23T20:14:09.922Z,29.50
2023-02-23T20:16:36.983Z,28.17
2023-02-23T20:19:05.420Z,27.87
2023-02-23T20:21:32.609Z,27.57
2023-02-23T20:24:01.483Z,29.50
2023-02-23T20:26:30.694Z,29.40
2023-02-23T20:28:58.062Z,27.83
2023-02-23T20:31:30.612Z,28.90
2023-02-23T20:33:59.301Z,30.53
2023-02-23T20:36:26.184Z,27.03
2023-02-23T20:38:52.958Z,27.93
2023-02-23T20:41:19.952Z,28.60
2023-02-23T20:43:46.668Z,30.07
2023-02-23T20:46:15.908Z,27.77
2023-02-23T20:48:42.752Z,27.20
2023-02-23T20:51:12.690Z,28.93
2023-02-23T20:53:40.528Z,27.93
2023-02-23T20:56:08.812Z,28.30
2023-02-23T20:58:35.416Z,28.27
2023-02-23T21:01:10.476Z,28.17
2023-02-23T21:03:36.915Z,27.33
2023-02-23T21:06:03.357Z,29.43
2023-02-23T21:08:30.600Z,29.97
2023-02-23T21:10:56.978Z,28.80
2023-02-23T21:13:26.368Z,29.20
2023-02-23T21:16:00.892Z,29.40
2023-02-23T21:18:28.170Z,27.87
2023-02-23T21:20:56.782Z,29.20
2023-02-23T21:23:26.251Z,28.60
2023-02-23T21:25:54.001Z,28.23
2023-02-23T21:28:21.117Z,28.90
2023-02-23T21:30:47.723Z,27.00
2023-02-23T21:33:14.580Z,26.00
2023-02-23T21:35:41.034Z,27.50
2023-02-23T21:38:08.281Z,27.80
2023-02-23T21:40:35.679Z,25.67
2023-02-23T21:43:06.508Z,27.53
2023-02-23T21:45:33.012Z,28.33
2023-02-23T21:47:59.470Z,28.40
2023-02-23T21:50:26.182Z,26.90
2023-02-23T21:52:57.771Z,27.67
2023-02-23T21:55:24.307Z,26.77
2023-02-23T21:57:52.006Z,27.53
2023-02-23T22:00:19.241Z,27.70
2023-02-23T22:02:46.654Z,29.73
2023-02-23T22:05:15.173Z,27.23
2023-02-23T22:07:46.820Z,26.50
2023-02-23T22:10:13.217Z,26.83
2023-02-23T22:12:39.661Z,26.20
2023-02-23T22:15:07.153Z,27.10
2023-02-23T22:17:33.806Z,27.40
2023-02-23T22:20:00.434Z,28.00
2023-02-23T22:22:27.288Z,28.33
2023-02-23T22:24:53.802Z,29.80
2023-02-23T22:27:20.405Z,31.20
2023-02-23T22:29:46.810Z,28.93
2023-02-23T22:32:13.327Z,28.20
2023-02-23T22:34:40.030Z,30.27
2023-02-23T22:37:06.519Z,30.30
2023-02-23T22:39:33.324Z,27.70
2023-02-23T22:41:59.791Z,30.47
2023-02-23T22:44:26.278Z,30.37
2023-02-23T22:46:53.168Z,27.87
2023-02-23T22:49:20.452Z,28.83
2023-02-23T22:51:47.216Z,27.70
2023-02-23T22:54:13.857Z,29.47
2023-02-23T22:56:42.349Z,29.27
2023-02-23T22:59:10.954Z,27.90
2023-02-23T23:01:38.822Z,26.93
2023-02-23T23:04:12.461Z,28.50
2023-02-23T23:06:41.190Z,28.20
2023-02-23T23:09:11.790Z,28.23
2023-02-23T23:11:41.698Z,29.13
2023-02-23T23:14:10.250Z,28.60
2023-02-23T23:16:47.416Z,29.00
2023-02-23T23:19:18.964Z,28.00
2023-02-23T23:21:46.107Z,28.47
2023-02-23T23:24:13.609Z,25.87
2023-02-23T23:26:40.868Z,29.87
2023-02-23T23:29:10.182Z,28.07
2023-02-23T23:31:38.332Z,28.27
2023-02-23T23:34:10.488Z,28.07
2023-02-23T23:36:53.099Z,28.70
2023-02-23T23:39:22.188Z,27.27
2023-02-23T23:41:49.786Z,25.97
2023-02-23T23:44:22.347Z,25.27
2023-02-23T23:46:50.812Z,28.13
2023-02-23T23:49:19.860Z,25.60
2023-02-23T23:51:51.518Z,27.67
2023-02-23T23:54:21.439Z,28.77
2023-02-23T23:56:49.498Z,26.30
2023-02-23T23:59:18.640Z,27.60
